sensor_id;sensor_type;location;lat;lon;timestamp;P1;durP1;ratioP1;P2;durP2;ratioP2
11473;SDS011;5793;52.238;13.438;2023-04-24T00:00:46;6.20;;;5.60;;
11473;SDS011;5793;52.238;13.438;2023-04-24T00:03:14;6.80;;;6.10;;
11473;SDS011;5793;52.238;13.438;2023-04-24T00:05:42;9.20;;;6.20;;
11473;SDS011;5793;52.238;13.438;2023-04-24T00:08:11;6.50;;;5.70;;
11473;SDS011;5793;52.238;13.438;2023-04-24T00:10:39;6.60;;;5.97;;
11473;SDS011;5793;52.238;13.438;2023-04-24T00:13:06;6.70;;;5.80;;
11473;SDS011;5793;52.238;13.438;2023-04-24T00:15:34;7.47;;;5.93;;
11473;SDS011;5793;52.238;13.438;2023-04-24T00:18:02;7.97;;;6.07;;
11473;SDS011;5793;52.238;13.438;2023-04-24T00:20:30;7.97;;;6.03;;
11473;SDS011;5793;52.238;13.438;2023-04-24T00:22:58;6.13;;;5.53;;
11473;SDS011;5793;52.238;13.438;2023-04-24T00:25:27;6.17;;;5.57;;
11473;SDS011;5793;52.238;13.438;2023-04-24T00:27:55;7.33;;;5.80;;
11473;SDS011;5793;52.238;13.438;2023-04-24T00:30:23;8.27;;;6.23;;
11473;SDS011;5793;52.238;13.438;2023-04-24T00:32:51;7.30;;;6.10;;
11473;SDS011;5793;52.238;13.438;2023-04-24T00:35:18;9.60;;;6.67;;
11473;SDS011;5793;52.238;13.438;2023-04-24T00:37:47;9.47;;;6.30;;
11473;SDS011;5793;52.238;13.438;2023-04-24T00:40:14;8.70;;;6.73;;
11473;SDS011;5793;52.238;13.438;2023-04-24T00:42:44;6.63;;;5.67;;
11473;SDS011;5793;52.238;13.438;2023-04-24T00:45:12;9.43;;;5.97;;
11473;SDS011;5793;52.238;13.438;2023-04-24T00:47:40;9.10;;;6.37;;
11473;SDS011;5793;52.238;13.438;2023-04-24T00:50:09;9.40;;;6.77;;
11473;SDS011;5793;52.238;13.438;2023-04-24T00:52:37;7.33;;;6.13;;
11473;SDS011;5793;52.238;13.438;2023-04-24T00:55:07;6.43;;;5.83;;
11473;SDS011;5793;52.238;13.438;2023-04-24T00:57:36;7.00;;;6.30;;
11473;SDS011;5793;52.238;13.438;2023-04-24T01:00:06;8.50;;;7.00;;
11473;SDS011;5793;52.238;13.438;2023-04-24T01:02:38;7.67;;;6.60;;
11473;SDS011;5793;52.238;13.438;2023-04-24T01:05:10;7.43;;;6.67;;
11473;SDS011;5793;52.238;13.438;2023-04-24T01:07:39;7.13;;;6.43;;
11473;SDS011;5793;52.238;13.438;2023-04-24T01:10:11;7.90;;;6.43;;
11473;SDS011;5793;52.238;13.438;2023-04-24T01:12:41;6.70;;;6.03;;
11473;SDS011;5793;52.238;13.438;2023-04-24T01:15:10;6.87;;;6.17;;
11473;SDS011;5793;52.238;13.438;2023-04-24T01:17:38;9.07;;;6.13;;
11473;SDS011;5793;52.238;13.438;2023-04-24T01:20:06;6.07;;;5.47;;
11473;SDS011;5793;52.238;13.438;2023-04-24T01:22:36;7.47;;;5.90;;
11473;SDS011;5793;52.238;13.438;2023-04-24T01:25:04;8.53;;;5.73;;
11473;SDS011;5793;52.238;13.438;2023-04-24T01:27:32;5.77;;;5.27;;
11473;SDS011;5793;52.238;13.438;2023-04-24T01:30:00;8.03;;;5.87;;
11473;SDS011;5793;52.238;13.438;2023-04-24T01:32:29;8.33;;;5.73;;
11473;SDS011;5793;52.238;13.438;2023-04-24T01:34:57;7.03;;;6.23;;
11473;SDS011;5793;52.238;13.438;2023-04-24T01:37:25;8.57;;;6.63;;
11473;SDS011;5793;52.238;13.438;2023-04-24T01:39:55;8.57;;;6.97;;
11473;SDS011;5793;52.238;13.438;2023-04-24T01:42:22;8.03;;;6.97;;
11473;SDS011;5793;52.238;13.438;2023-04-24T01:44:51;9.17;;;7.60;;
11473;SDS011;5793;52.238;13.438;2023-04-24T01:47:19;7.30;;;6.60;;
11473;SDS011;5793;52.238;13.438;2023-04-24T01:49:47;8.00;;;7.20;;
11473;SDS011;5793;52.238;13.438;2023-04-24T01:52:16;7.67;;;6.93;;
11473;SDS011;5793;52.238;13.438;2023-04-24T01:54:45;7.57;;;6.77;;
11473;SDS011;5793;52.238;13.438;2023-04-24T01:57:14;8.90;;;7.27;;
11473;SDS011;5793;52.238;13.438;2023-04-24T01:59:43;6.73;;;6.10;;
11473;SDS011;5793;52.238;13.438;2023-04-24T02:02:11;8.00;;;7.20;;
11473;SDS011;5793;52.238;13.438;2023-04-24T02:04:39;8.07;;;7.17;;
11473;SDS011;5793;52.238;13.438;2023-04-24T02:07:07;8.00;;;7.20;;
11473;SDS011;5793;52.238;13.438;2023-04-24T02:09:35;8.17;;;7.33;;
11473;SDS011;5793;52.238;13.438;2023-04-24T02:12:02;7.50;;;6.80;;
11473;SDS011;5793;52.238;13.438;2023-04-24T02:14:32;8.47;;;7.43;;
11473;SDS011;5793;52.238;13.438;2023-04-24T02:16:59;7.60;;;6.83;;
11473;SDS011;5793;52.238;13.438;2023-04-24T02:19:27;7.63;;;6.87;;
11473;SDS011;5793;52.238;13.438;2023-04-24T02:21:55;7.97;;;7.17;;
11473;SDS011;5793;52.238;13.438;2023-04-24T02:24:23;8.27;;;6.83;;
11473;SDS011;5793;52.238;13.438;2023-04-24T02:26:51;14.63;;;9.90;;
11473;SDS011;5793;52.238;13.438;2023-04-24T02:29:18;15.30;;;11.13;;
11473;SDS011;5793;52.238;13.438;2023-04-24T02:31:48;9.30;;;8.33;;
11473;SDS011;5793;52.238;13.438;2023-04-24T02:34:15;11.07;;;7.47;;
11473;SDS011;5793;52.238;13.438;2023-04-24T02:36:43;8.63;;;6.90;;
11473;SDS011;5793;52.238;13.438;2023-04-24T02:39:11;7.50;;;6.80;;
11473;SDS011;5793;52.238;13.438;2023-04-24T02:41:39;6.77;;;6.07;;
11473;SDS011;5793;52.238;13.438;2023-04-24T02:44:08;7.00;;;6.40;;
11473;SDS011;5793;52.238;13.438;2023-04-24T02:46:36;7.72;;;6.93;;
11473;SDS011;5793;52.238;13.438;2023-04-24T02:49:05;7.05;;;6.38;;
11473;SDS011;5793;52.238;13.438;2023-04-24T02:51:33;6.63;;;5.95;;
11473;SDS011;5793;52.238;13.438;2023-04-24T02:54:01;7.75;;;6.85;;
11473;SDS011;5793;52.238;13.438;2023-04-24T02:56:28;6.97;;;6.38;;
11473;SDS011;5793;52.238;13.438;2023-04-24T02:58:56;7.45;;;6.72;;
11473;SDS011;5793;52.238;13.438;2023-04-24T03:01:24;7.38;;;6.47;;
11473;SDS011;5793;52.238;13.438;2023-04-24T03:03:52;6.80;;;6.15;;
11473;SDS011;5793;52.238;13.438;2023-04-24T03:06:21;6.90;;;6.22;;
11473;SDS011;5793;52.238;13.438;2023-04-24T03:08:49;7.55;;;5.95;;
11473;SDS011;5793;52.238;13.438;2023-04-24T03:11:17;6.75;;;6.05;;
11473;SDS011;5793;52.238;13.438;2023-04-24T03:13:44;8.05;;;6.10;;
11473;SDS011;5793;52.238;13.438;2023-04-24T03:16:12;6.15;;;5.55;;
11473;SDS011;5793;52.238;13.438;2023-04-24T03:18:40;6.75;;;5.40;;
11473;SDS011;5793;52.238;13.438;2023-04-24T03:21:08;6.40;;;5.65;;
11473;SDS011;5793;52.238;13.438;2023-04-24T03:23:37;10.50;;;6.18;;
11473;SDS011;5793;52.238;13.438;2023-04-24T03:26:04;6.97;;;6.28;;
11473;SDS011;5793;52.238;13.438;2023-04-24T03:28:32;6.88;;;6.07;;
11473;SDS011;5793;52.238;13.438;2023-04-24T03:31:00;7.90;;;6.57;;
11473;SDS011;5793;52.238;13.438;2023-04-24T03:33:28;9.10;;;7.13;;
11473;SDS011;5793;52.238;13.438;2023-04-24T03:35:56;7.93;;;6.13;;
11473;SDS011;5793;52.238;13.438;2023-04-24T03:38:23;7.70;;;6.60;;
11473;SDS011;5793;52.238;13.438;2023-04-24T03:40:53;8.20;;;6.65;;
11473;SDS011;5793;52.238;13.438;2023-04-24T03:43:20;9.40;;;7.28;;
11473;SDS011;5793;52.238;13.438;2023-04-24T03:45:48;8.73;;;7.03;;
11473;SDS011;5793;52.238;13.438;2023-04-24T03:48:16;8.88;;;6.97;;
11473;SDS011;5793;52.238;13.438;2023-04-24T03:50:44;10.53;;;6.70;;
11473;SDS011;5793;52.238;13.438;2023-04-24T03:53:12;6.88;;;6.18;;
11473;SDS011;5793;52.238;13.438;2023-04-24T03:55:39;6.57;;;5.88;;
11473;SDS011;5793;52.238;13.438;2023-04-24T03:58:09;8.47;;;6.20;;
11473;SDS011;5793;52.238;13.438;2023-04-24T04:00:37;7.15;;;6.45;;
11473;SDS011;5793;52.238;13.438;2023-04-24T04:03:06;7.63;;;5.70;;
11473;SDS011;5793;52.238;13.438;2023-04-24T04:05:34;5.93;;;5.30;;
11473;SDS011;5793;52.238;13.438;2023-04-24T04:08:02;7.28;;;5.35;;
11473;SDS011;5793;52.238;13.438;2023-04-24T04:10:30;6.93;;;5.47;;
11473;SDS011;5793;52.238;13.438;2023-04-24T04:12:58;5.72;;;5.00;;
11473;SDS011;5793;52.238;13.438;2023-04-24T04:15:27;5.43;;;4.93;;
11473;SDS011;5793;52.238;13.438;2023-04-24T04:17:55;6.07;;;4.88;;
11473;SDS011;5793;52.238;13.438;2023-04-24T04:20:23;6.82;;;4.97;;
11473;SDS011;5793;52.238;13.438;2023-04-24T04:22:51;4.63;;;4.22;;
11473;SDS011;5793;52.238;13.438;2023-04-24T04:25:19;4.95;;;4.40;;
11473;SDS011;5793;52.238;13.438;2023-04-24T04:27:47;6.55;;;4.38;;
11473;SDS011;5793;52.238;13.438;2023-04-24T04:30:14;8.80;;;5.00;;
11473;SDS011;5793;52.238;13.438;2023-04-24T04:32:43;6.13;;;4.50;;
11473;SDS011;5793;52.238;13.438;2023-04-24T04:35:11;8.80;;;4.72;;
11473;SDS011;5793;52.238;13.438;2023-04-24T04:37:39;7.05;;;3.95;;
11473;SDS011;5793;52.238;13.438;2023-04-24T04:40:07;5.32;;;4.53;;
11473;SDS011;5793;52.238;13.438;2023-04-24T04:42:38;6.72;;;4.65;;
11473;SDS011;5793;52.238;13.438;2023-04-24T04:45:07;5.20;;;4.32;;
11473;SDS011;5793;52.238;13.438;2023-04-24T04:47:37;7.65;;;5.10;;
11473;SDS011;5793;52.238;13.438;2023-04-24T04:50:07;10.82;;;5.03;;
11473;SDS011;5793;52.238;13.438;2023-04-24T04:52:36;9.32;;;4.72;;
11473;SDS011;5793;52.238;13.438;2023-04-24T04:55:04;4.45;;;3.90;;
11473;SDS011;5793;52.238;13.438;2023-04-24T04:57:33;9.02;;;3.90;;
11473;SDS011;5793;52.238;13.438;2023-04-24T05:00:01;7.97;;;4.00;;
11473;SDS011;5793;52.238;13.438;2023-04-24T05:02:30;6.28;;;4.13;;
11473;SDS011;5793;52.238;13.438;2023-04-24T05:04:58;5.22;;;3.55;;
11473;SDS011;5793;52.238;13.438;2023-04-24T05:07:28;5.05;;;3.63;;
11473;SDS011;5793;52.238;13.438;2023-04-24T05:09:55;9.05;;;3.50;;
11473;SDS011;5793;52.238;13.438;2023-04-24T05:12:23;4.70;;;3.13;;
11473;SDS011;5793;52.238;13.438;2023-04-24T05:14:51;4.32;;;3.45;;
11473;SDS011;5793;52.238;13.438;2023-04-24T05:17:19;3.85;;;3.47;;
11473;SDS011;5793;52.238;13.438;2023-04-24T05:19:47;4.85;;;3.30;;
11473;SDS011;5793;52.238;13.438;2023-04-24T05:22:14;4.95;;;3.25;;
11473;SDS011;5793;52.238;13.438;2023-04-24T05:24:45;4.18;;;3.20;;
11473;SDS011;5793;52.238;13.438;2023-04-24T05:27:14;3.50;;;2.90;;
11473;SDS011;5793;52.238;13.438;2023-04-24T05:29:42;3.58;;;2.70;;
11473;SDS011;5793;52.238;13.438;2023-04-24T05:32:10;4.53;;;3.08;;
11473;SDS011;5793;52.238;13.438;2023-04-24T05:34:38;3.38;;;2.85;;
11473;SDS011;5793;52.238;13.438;2023-04-24T05:37:06;3.17;;;2.50;;
11473;SDS011;5793;52.238;13.438;2023-04-24T05:39:36;2.72;;;2.33;;
11473;SDS011;5793;52.238;13.438;2023-04-24T05:42:05;4.20;;;2.38;;
11473;SDS011;5793;52.238;13.438;2023-04-24T05:44:33;5.07;;;2.95;;
11473;SDS011;5793;52.238;13.438;2023-04-24T05:47:01;3.30;;;2.42;;
11473;SDS011;5793;52.238;13.438;2023-04-24T05:49:28;4.82;;;2.72;;
11473;SDS011;5793;52.238;13.438;2023-04-24T05:51:56;5.22;;;2.65;;
11473;SDS011;5793;52.238;13.438;2023-04-24T05:54:24;2.90;;;2.53;;
11473;SDS011;5793;52.238;13.438;2023-04-24T05:56:52;2.78;;;2.22;;
11473;SDS011;5793;52.238;13.438;2023-04-24T05:59:22;2.53;;;2.20;;
11473;SDS011;5793;52.238;13.438;2023-04-24T06:01:49;4.50;;;2.28;;
11473;SDS011;5793;52.238;13.438;2023-04-24T06:04:17;2.35;;;2.15;;
11473;SDS011;5793;52.238;13.438;2023-04-24T06:06:45;2.75;;;2.08;;
11473;SDS011;5793;52.238;13.438;2023-04-24T06:09:16;4.88;;;2.28;;
11473;SDS011;5793;52.238;13.438;2023-04-24T06:11:44;2.22;;;1.85;;
11473;SDS011;5793;52.238;13.438;2023-04-24T06:14:12;3.30;;;2.00;;
11473;SDS011;5793;52.238;13.438;2023-04-24T06:16:42;2.50;;;1.92;;
11473;SDS011;5793;52.238;13.438;2023-04-24T06:19:10;2.65;;;1.73;;
11473;SDS011;5793;52.238;13.438;2023-04-24T06:21:38;2.92;;;1.80;;
11473;SDS011;5793;52.238;13.438;2023-04-24T06:24:05;2.28;;;1.75;;
11473;SDS011;5793;52.238;13.438;2023-04-24T06:26:33;1.73;;;1.48;;
11473;SDS011;5793;52.238;13.438;2023-04-24T06:29:01;2.80;;;1.90;;
11473;SDS011;5793;52.238;13.438;2023-04-24T06:31:29;3.15;;;1.50;;
11473;SDS011;5793;52.238;13.438;2023-04-24T06:34:02;2.13;;;1.73;;
11473;SDS011;5793;52.238;13.438;2023-04-24T06:36:30;7.00;;;1.42;;
11473;SDS011;5793;52.238;13.438;2023-04-24T06:39:00;4.43;;;1.50;;
11473;SDS011;5793;52.238;13.438;2023-04-24T06:41:28;1.33;;;1.23;;
11473;SDS011;5793;52.238;13.438;2023-04-24T06:43:56;3.85;;;1.55;;
11473;SDS011;5793;52.238;13.438;2023-04-24T06:46:24;2.33;;;1.23;;
11473;SDS011;5793;52.238;13.438;2023-04-24T06:48:54;3.45;;;1.52;;
11473;SDS011;5793;52.238;13.438;2023-04-24T06:51:23;1.33;;;1.23;;
11473;SDS011;5793;52.238;13.438;2023-04-24T06:53:52;3.92;;;1.30;;
11473;SDS011;5793;52.238;13.438;2023-04-24T06:56:20;3.40;;;1.30;;
11473;SDS011;5793;52.238;13.438;2023-04-24T06:58:47;1.80;;;1.27;;
11473;SDS011;5793;52.238;13.438;2023-04-24T07:01:15;2.95;;;1.20;;
11473;SDS011;5793;52.238;13.438;2023-04-24T07:03:43;4.05;;;1.40;;
11473;SDS011;5793;52.238;13.438;2023-04-24T07:06:11;4.00;;;1.25;;
11473;SDS011;5793;52.238;13.438;2023-04-24T07:08:40;2.47;;;1.42;;
11473;SDS011;5793;52.238;13.438;2023-04-24T07:11:09;5.43;;;1.60;;
11473;SDS011;5793;52.238;13.438;2023-04-24T07:13:37;1.77;;;1.20;;
11473;SDS011;5793;52.238;13.438;2023-04-24T07:16:08;4.55;;;1.40;;
11473;SDS011;5793;52.238;13.438;2023-04-24T07:18:38;3.45;;;1.27;;
11473;SDS011;5793;52.238;13.438;2023-04-24T07:21:06;3.33;;;1.10;;
11473;SDS011;5793;52.238;13.438;2023-04-24T07:23:34;4.90;;;1.20;;
11473;SDS011;5793;52.238;13.438;2023-04-24T07:26:03;3.95;;;1.42;;
11473;SDS011;5793;52.238;13.438;2023-04-24T07:28:31;2.03;;;1.30;;
11473;SDS011;5793;52.238;13.438;2023-04-24T07:30:59;1.75;;;1.30;;
11473;SDS011;5793;52.238;13.438;2023-04-24T07:33:27;1.75;;;1.30;;
11473;SDS011;5793;52.238;13.438;2023-04-24T07:35:54;1.05;;;0.85;;
11473;SDS011;5793;52.238;13.438;2023-04-24T07:38:22;1.58;;;1.02;;
11473;SDS011;5793;52.238;13.438;2023-04-24T07:40:51;1.17;;;1.08;;
11473;SDS011;5793;52.238;13.438;2023-04-24T07:43:21;1.40;;;1.10;;
11473;SDS011;5793;52.238;13.438;2023-04-24T07:45:49;5.45;;;1.08;;
11473;SDS011;5793;52.238;13.438;2023-04-24T07:48:18;3.30;;;1.10;;
11473;SDS011;5793;52.238;13.438;2023-04-24T07:50:47;2.97;;;1.50;;
11473;SDS011;5793;52.238;13.438;2023-04-24T07:53:15;1.35;;;1.20;;
11473;SDS011;5793;52.238;13.438;2023-04-24T07:55:43;2.47;;;1.30;;
11473;SDS011;5793;52.238;13.438;2023-04-24T07:58:11;2.67;;;1.40;;
11473;SDS011;5793;52.238;13.438;2023-04-24T08:00:40;1.70;;;1.35;;
11473;SDS011;5793;52.238;13.438;2023-04-24T08:03:08;1.77;;;1.20;;
11473;SDS011;5793;52.238;13.438;2023-04-24T08:05:36;2.35;;;1.42;;
11473;SDS011;5793;52.238;13.438;2023-04-24T08:08:06;2.85;;;1.20;;
11473;SDS011;5793;52.238;13.438;2023-04-24T08:10:34;3.88;;;1.25;;
11473;SDS011;5793;52.238;13.438;2023-04-24T08:13:01;1.63;;;1.20;;
11473;SDS011;5793;52.238;13.438;2023-04-24T08:15:29;1.98;;;1.30;;
11473;SDS011;5793;52.238;13.438;2023-04-24T08:17:58;1.77;;;1.20;;
11473;SDS011;5793;52.238;13.438;2023-04-24T08:20:26;1.55;;;1.42;;
11473;SDS011;5793;52.238;13.438;2023-04-24T08:22:54;4.20;;;1.50;;
11473;SDS011;5793;52.238;13.438;2023-04-24T08:25:22;2.78;;;1.25;;
11473;SDS011;5793;52.238;13.438;2023-04-24T08:27:50;5.40;;;1.35;;
11473;SDS011;5793;52.238;13.438;2023-04-24T08:30:18;1.70;;;1.20;;
11473;SDS011;5793;52.238;13.438;2023-04-24T08:32:47;1.80;;;1.20;;
11473;SDS011;5793;52.238;13.438;2023-04-24T08:35:16;2.97;;;0.98;;
11473;SDS011;5793;52.238;13.438;2023-04-24T08:37:44;2.70;;;1.00;;
11473;SDS011;5793;52.238;13.438;2023-04-24T08:40:13;2.70;;;1.33;;
11473;SDS011;5793;52.238;13.438;2023-04-24T08:42:43;1.58;;;1.17;;
11473;SDS011;5793;52.238;13.438;2023-04-24T08:45:12;2.28;;;1.25;;
11473;SDS011;5793;52.238;13.438;2023-04-24T08:47:40;2.50;;;1.13;;
11473;SDS011;5793;52.238;13.438;2023-04-24T08:50:10;1.85;;;1.08;;
11473;SDS011;5793;52.238;13.438;2023-04-24T08:52:40;2.38;;;0.98;;
11473;SDS011;5793;52.238;13.438;2023-04-24T08:55:09;3.47;;;1.00;;
11473;SDS011;5793;52.238;13.438;2023-04-24T08:57:37;3.38;;;1.10;;
11473;SDS011;5793;52.238;13.438;2023-04-24T09:00:07;1.45;;;1.02;;
11473;SDS011;5793;52.238;13.438;2023-04-24T09:02:39;1.85;;;1.10;;
11473;SDS011;5793;52.238;13.438;2023-04-24T09:05:09;1.95;;;1.20;;
11473;SDS011;5793;52.238;13.438;2023-04-24T09:07:37;1.13;;;1.00;;
11473;SDS011;5793;52.238;13.438;2023-04-24T09:10:09;4.03;;;1.20;;
11473;SDS011;5793;52.238;13.438;2023-04-24T09:12:37;3.95;;;1.20;;
11473;SDS011;5793;52.238;13.438;2023-04-24T09:15:05;2.00;;;1.25;;
11473;SDS011;5793;52.238;13.438;2023-04-24T09:17:35;1.77;;;1.20;;
11473;SDS011;5793;52.238;13.438;2023-04-24T09:20:04;2.42;;;1.10;;
11473;SDS011;5793;52.238;13.438;2023-04-24T09:22:32;2.05;;;1.10;;
11473;SDS011;5793;52.238;13.438;2023-04-24T09:25:05;2.65;;;1.20;;
11473;SDS011;5793;52.238;13.438;2023-04-24T09:27:35;2.30;;;1.10;;
11473;SDS011;5793;52.238;13.438;2023-04-24T09:30:03;8.50;;;1.48;;
11473;SDS011;5793;52.238;13.438;2023-04-24T09:32:31;2.20;;;1.00;;
11473;SDS011;5793;52.238;13.438;2023-04-24T09:35:09;2.22;;;1.15;;
11473;SDS011;5793;52.238;13.438;2023-04-24T09:37:41;1.33;;;1.00;;
11473;SDS011;5793;52.238;13.438;2023-04-24T09:40:17;1.38;;;1.20;;
11473;SDS011;5793;52.238;13.438;2023-04-24T09:42:51;2.08;;;1.20;;
11473;SDS011;5793;52.238;13.438;2023-04-24T09:45:19;2.15;;;1.17;;
11473;SDS011;5793;52.238;13.438;2023-04-24T09:47:51;5.97;;;1.42;;
11473;SDS011;5793;52.238;13.438;2023-04-24T09:50:19;3.75;;;1.20;;
11473;SDS011;5793;52.238;13.438;2023-04-24T09:52:55;5.65;;;1.58;;
11473;SDS011;5793;52.238;13.438;2023-04-24T09:55:26;2.42;;;1.25;;
11473;SDS011;5793;52.238;13.438;2023-04-24T09:57:54;2.47;;;1.30;;
11473;SDS011;5793;52.238;13.438;2023-04-24T10:00:24;3.00;;;1.42;;
11473;SDS011;5793;52.238;13.438;2023-04-24T10:02:54;1.85;;;1.20;;
11473;SDS011;5793;52.238;13.438;2023-04-24T10:05:23;1.65;;;1.20;;
11473;SDS011;5793;52.238;13.438;2023-04-24T10:07:55;3.05;;;1.20;;
11473;SDS011;5793;52.238;13.438;2023-04-24T10:10:23;1.92;;;1.08;;
11473;SDS011;5793;52.238;13.438;2023-04-24T10:12:52;1.48;;;0.90;;
11473;SDS011;5793;52.238;13.438;2023-04-24T10:15:21;1.27;;;0.77;;
11473;SDS011;5793;52.238;13.438;2023-04-24T10:17:50;2.53;;;0.98;;
11473;SDS011;5793;52.238;13.438;2023-04-24T10:20:20;2.03;;;1.02;;
11473;SDS011;5793;52.238;13.438;2023-04-24T10:22:49;1.58;;;1.00;;
11473;SDS011;5793;52.238;13.438;2023-04-24T10:25:18;2.70;;;0.80;;
11473;SDS011;5793;52.238;13.438;2023-04-24T10:27:48;1.50;;;0.80;;
11473;SDS011;5793;52.238;13.438;2023-04-24T10:30:18;3.00;;;0.95;;
11473;SDS011;5793;52.238;13.438;2023-04-24T10:32:47;1.50;;;0.93;;
11473;SDS011;5793;52.238;13.438;2023-04-24T10:35:15;2.47;;;1.05;;
11473;SDS011;5793;52.238;13.438;2023-04-24T10:37:46;2.30;;;0.90;;
11473;SDS011;5793;52.238;13.438;2023-04-24T10:40:17;0.85;;;0.80;;
11473;SDS011;5793;52.238;13.438;2023-04-24T10:42:51;1.58;;;0.90;;
11473;SDS011;5793;52.238;13.438;2023-04-24T10:45:25;3.20;;;1.10;;
11473;SDS011;5793;52.238;13.438;2023-04-24T10:47:54;1.50;;;1.05;;
11473;SDS011;5793;52.238;13.438;2023-04-24T10:50:25;1.33;;;0.90;;
11473;SDS011;5793;52.238;13.438;2023-04-24T10:53:04;2.30;;;1.40;;
11473;SDS011;5793;52.238;13.438;2023-04-24T10:55:39;2.45;;;0.93;;
11473;SDS011;5793;52.238;13.438;2023-04-24T10:58:10;2.65;;;1.08;;
11473;SDS011;5793;52.238;13.438;2023-04-24T11:00:40;2.38;;;1.05;;
11473;SDS011;5793;52.238;13.438;2023-04-24T11:03:22;1.40;;;0.98;;
11473;SDS011;5793;52.238;13.438;2023-04-24T11:05:53;2.20;;;1.23;;
11473;SDS011;5793;52.238;13.438;2023-04-24T11:08:24;3.50;;;1.10;;
11473;SDS011;5793;52.238;13.438;2023-04-24T11:10:55;1.80;;;1.00;;
11473;SDS011;5793;52.238;13.438;2023-04-24T11:13:25;1.63;;;0.88;;
11473;SDS011;5793;52.238;13.438;2023-04-24T11:16:14;0.77;;;0.77;;
11473;SDS011;5793;52.238;13.438;2023-04-24T11:18:50;2.22;;;0.98;;
11473;SDS011;5793;52.238;13.438;2023-04-24T11:21:20;1.83;;;1.00;;
11473;SDS011;5793;52.238;13.438;2023-04-24T11:23:49;1.08;;;0.90;;
11473;SDS011;5793;52.238;13.438;2023-04-24T11:26:18;2.58;;;1.27;;
11473;SDS011;5793;52.238;13.438;2023-04-24T11:28:50;0.80;;;0.80;;
11473;SDS011;5793;52.238;13.438;2023-04-24T11:31:35;2.75;;;1.10;;
11473;SDS011;5793;52.238;13.438;2023-04-24T11:34:07;2.33;;;1.27;;
11473;SDS011;5793;52.238;13.438;2023-04-24T11:36:36;0.75;;;0.75;;
11473;SDS011;5793;52.238;13.438;2023-04-24T11:39:05;2.10;;;1.00;;
11473;SDS011;5793;52.238;13.438;2023-04-24T11:41:33;1.48;;;0.98;;
11473;SDS011;5793;52.238;13.438;2023-04-24T11:44:01;4.47;;;1.45;;
11473;SDS011;5793;52.238;13.438;2023-04-24T11:46:30;2.08;;;0.90;;
11473;SDS011;5793;52.238;13.438;2023-04-24T11:49:00;2.83;;;0.90;;
11473;SDS011;5793;52.238;13.438;2023-04-24T11:51:28;1.38;;;0.90;;
11473;SDS011;5793;52.238;13.438;2023-04-24T11:54:09;1.95;;;1.20;;
11473;SDS011;5793;52.238;13.438;2023-04-24T11:56:36;1.10;;;1.00;;
11473;SDS011;5793;52.238;13.438;2023-04-24T11:59:05;1.92;;;1.13;;
11473;SDS011;5793;52.238;13.438;2023-04-24T12:01:42;2.50;;;1.13;;
11473;SDS011;5793;52.238;13.438;2023-04-24T12:04:11;1.77;;;1.00;;
11473;SDS011;5793;52.238;13.438;2023-04-24T12:06:40;3.05;;;1.23;;
11473;SDS011;5793;52.238;13.438;2023-04-24T12:09:26;1.55;;;0.80;;
11473;SDS011;5793;52.238;13.438;2023-04-24T12:11:54;1.88;;;1.00;;
11473;SDS011;5793;52.238;13.438;2023-04-24T12:14:23;2.35;;;1.00;;
11473;SDS011;5793;52.238;13.438;2023-04-24T12:16:51;1.25;;;1.02;;
11473;SDS011;5793;52.238;13.438;2023-04-24T12:19:21;1.08;;;0.90;;
11473;SDS011;5793;52.238;13.438;2023-04-24T12:22:00;2.42;;;0.90;;
11473;SDS011;5793;52.238;13.438;2023-04-24T12:24:28;1.38;;;0.98;;
11473;SDS011;5793;52.238;13.438;2023-04-24T12:26:56;1.42;;;1.00;;
11473;SDS011;5793;52.238;13.438;2023-04-24T12:29:24;4.25;;;0.80;;
11473;SDS011;5793;52.238;13.438;2023-04-24T12:31:53;1.73;;;0.90;;
11473;SDS011;5793;52.238;13.438;2023-04-24T12:34:23;1.65;;;1.05;;
11473;SDS011;5793;52.238;13.438;2023-04-24T12:36:52;1.10;;;0.80;;
11473;SDS011;5793;52.238;13.438;2023-04-24T12:39:20;2.10;;;0.88;;
11473;SDS011;5793;52.238;13.438;2023-04-24T12:41:50;2.15;;;0.93;;
11473;SDS011;5793;52.238;13.438;2023-04-24T12:44:28;2.20;;;1.00;;
11473;SDS011;5793;52.238;13.438;2023-04-24T12:46:57;1.33;;;0.80;;
11473;SDS011;5793;52.238;13.438;2023-04-24T12:49:27;2.83;;;1.10;;
11473;SDS011;5793;52.238;13.438;2023-04-24T12:51:54;3.20;;;1.20;;
11473;SDS011;5793;52.238;13.438;2023-04-24T12:54:22;2.15;;;0.98;;
11473;SDS011;5793;52.238;13.438;2023-04-24T12:56:50;1.10;;;0.88;;
11473;SDS011;5793;52.238;13.438;2023-04-24T12:59:18;1.35;;;0.93;;
11473;SDS011;5793;52.238;13.438;2023-04-24T13:01:46;2.58;;;1.00;;
11473;SDS011;5793;52.238;13.438;2023-04-24T13:04:13;2.25;;;1.10;;
11473;SDS011;5793;52.238;13.438;2023-04-24T13:06:44;5.75;;;1.10;;
11473;SDS011;5793;52.238;13.438;2023-04-24T13:09:12;1.67;;;1.00;;
11473;SDS011;5793;52.238;13.438;2023-04-24T13:11:40;2.80;;;1.10;;
11473;SDS011;5793;52.238;13.438;2023-04-24T13:14:07;1.98;;;1.00;;
11473;SDS011;5793;52.238;13.438;2023-04-24T13:16:35;1.92;;;0.93;;
11473;SDS011;5793;52.238;13.438;2023-04-24T13:19:03;2.40;;;1.20;;
11473;SDS011;5793;52.238;13.438;2023-04-24T13:21:31;2.47;;;1.00;;
11473;SDS011;5793;52.238;13.438;2023-04-24T13:24:00;1.63;;;1.10;;
11473;SDS011;5793;52.238;13.438;2023-04-24T13:26:30;2.33;;;1.00;;
11473;SDS011;5793;52.238;13.438;2023-04-24T13:28:57;3.47;;;1.00;;
11473;SDS011;5793;52.238;13.438;2023-04-24T13:31:25;1.73;;;0.93;;
11473;SDS011;5793;52.238;13.438;2023-04-24T13:33:53;3.13;;;1.13;;
11473;SDS011;5793;52.238;13.438;2023-04-24T13:36:21;2.17;;;1.10;;
11473;SDS011;5793;52.238;13.438;2023-04-24T13:38:49;2.45;;;1.10;;
11473;SDS011;5793;52.238;13.438;2023-04-24T13:41:18;2.33;;;1.00;;
11473;SDS011;5793;52.238;13.438;2023-04-24T13:43:46;2.65;;;0.90;;
11473;SDS011;5793;52.238;13.438;2023-04-24T13:46:14;4.28;;;1.00;;
11473;SDS011;5793;52.238;13.438;2023-04-24T13:48:42;1.20;;;1.00;;
11473;SDS011;5793;52.238;13.438;2023-04-24T13:51:09;2.10;;;1.05;;
11473;SDS011;5793;52.238;13.438;2023-04-24T13:53:37;3.08;;;1.10;;
11473;SDS011;5793;52.238;13.438;2023-04-24T13:56:05;1.52;;;1.00;;
11473;SDS011;5793;52.238;13.438;2023-04-24T13:58:35;0.90;;;0.90;;
11473;SDS011;5793;52.238;13.438;2023-04-24T14:01:04;1.65;;;0.95;;
11473;SDS011;5793;52.238;13.438;2023-04-24T14:03:32;4.72;;;1.13;;
11473;SDS011;5793;52.238;13.438;2023-04-24T14:06:01;2.72;;;1.13;;
11473;SDS011;5793;52.238;13.438;2023-04-24T14:08:28;2.60;;;1.00;;
11473;SDS011;5793;52.238;13.438;2023-04-24T14:10:56;2.63;;;1.25;;
11473;SDS011;5793;52.238;13.438;2023-04-24T14:13:24;3.05;;;0.95;;
11473;SDS011;5793;52.238;13.438;2023-04-24T14:15:53;2.10;;;1.10;;
11473;SDS011;5793;52.238;13.438;2023-04-24T14:18:21;1.67;;;1.10;;
11473;SDS011;5793;52.238;13.438;2023-04-24T14:20:49;1.20;;;1.10;;
11473;SDS011;5793;52.238;13.438;2023-04-24T14:23:17;2.47;;;0.98;;
11473;SDS011;5793;52.238;13.438;2023-04-24T14:25:44;1.38;;;1.10;;
11473;SDS011;5793;52.238;13.438;2023-04-24T14:28:14;1.50;;;1.17;;
11473;SDS011;5793;52.238;13.438;2023-04-24T14:30:42;3.53;;;1.20;;
11473;SDS011;5793;52.238;13.438;2023-04-24T14:33:11;3.45;;;1.20;;
11473;SDS011;5793;52.238;13.438;2023-04-24T14:35:40;3.38;;;0.98;;
11473;SDS011;5793;52.238;13.438;2023-04-24T14:38:09;2.28;;;1.10;;
11473;SDS011;5793;52.238;13.438;2023-04-24T14:40:37;2.55;;;1.13;;
11473;SDS011;5793;52.238;13.438;2023-04-24T14:43:08;1.30;;;1.02;;
11473;SDS011;5793;52.238;13.438;2023-04-24T14:45:36;3.33;;;1.38;;
11473;SDS011;5793;52.238;13.438;2023-04-24T14:48:04;1.58;;;1.20;;
11473;SDS011;5793;52.238;13.438;2023-04-24T14:50:33;2.88;;;1.23;;
11473;SDS011;5793;52.238;13.438;2023-04-24T14:53:01;5.20;;;1.20;;
11473;SDS011;5793;52.238;13.438;2023-04-24T14:55:30;2.63;;;1.30;;
11473;SDS011;5793;52.238;13.438;2023-04-24T14:57:59;1.38;;;1.23;;